sensor_id;sensor_type;location;lat;lon;timestamp;pressure;altitude;pressure_sealevel;temperature;humidity
55317;BME280;41178;48.956;8.130;2023-02-16T00:04:14;101013.00;;;-1.39;63.79
55317;BME280;41178;48.956;8.130;2023-02-16T00:09:18;101070.13;;;-2.38;68.20
55317;BME280;41178;48.956;8.130;2023-02-16T00:14:21;101040.38;;;-2.18;66.58
55317;BME280;41178;48.956;8.130;2023-02-16T00:19:42;101010.47;;;-0.55;63.71
55317;BME280;41178;48.956;8.130;2023-02-16T00:24:44;101028.06;;;0.08;61.64
55317;BME280;41178;48.956;8.130;2023-02-16T00:29:46;101028.06;;;0.08;61.62
55317;BME280;41178;48.956;8.130;2023-02-16T00:34:47;100988.59;;;-2.71;65.97
55317;BME280;41178;48.956;8.130;2023-02-16T00:39:49;101025.06;;;-1.18;63.94
55317;BME280;41178;48.956;8.130;2023-02-16T00:44:53;101023.59;;;-0.21;61.60
55317;BME280;41178;48.956;8.130;2023-02-16T00:49:56;101035.88;;;0.10;60.97
55317;BME280;41178;48.956;8.130;2023-02-16T00:54:59;101021.66;;;-0.51;62.66
55317;BME280;41178;48.956;8.130;2023-02-16T01:05:20;101039.19;;;0.13;61.36
55317;BME280;41178;48.956;8.130;2023-02-16T01:10:23;101039.03;;;0.01;62.01
55317;BME280;41178;48.956;8.130;2023-02-16T01:15:43;101016.44;;;-0.19;61.60
55317;BME280;41178;48.956;8.130;2023-02-16T01:20:46;101016.78;;;-0.26;61.76
55317;BME280;41178;48.956;8.130;2023-02-16T01:25:48;101025.53;;;-0.58;63.44
55317;BME280;41178;48.956;8.130;2023-02-16T01:30:50;101031.09;;;-0.65;63.86
55317;BME280;41178;48.956;8.130;2023-02-16T01:35:54;101031.59;;;-0.40;63.17
55317;BME280;41178;48.956;8.130;2023-02-16T02:02:28;101019.22;;;-0.38;63.52
55317;BME280;41178;48.956;8.130;2023-02-16T02:07:36;101047.25;;;-1.06;64.82
55317;BME280;41178;48.956;8.130;2023-02-16T02:12:47;101042.75;;;-1.21;66.22
55317;BME280;41178;48.956;8.130;2023-02-16T02:17:51;100998.81;;;-0.84;64.77
55317;BME280;41178;48.956;8.130;2023-02-16T02:23:08;101019.31;;;-0.91;65.57
55317;BME280;41178;48.956;8.130;2023-02-16T02:28:43;101015.22;;;-0.96;66.25
55317;BME280;41178;48.956;8.130;2023-02-16T02:39:23;100998.38;;;-1.80;66.88
55317;BME280;41178;48.956;8.130;2023-02-16T02:44:30;101001.13;;;0.35;62.24
55317;BME280;41178;48.956;8.130;2023-02-16T02:49:34;101010.88;;;-1.67;67.09
55317;BME280;41178;48.956;8.130;2023-02-16T02:54:37;100985.66;;;-1.18;66.06
55317;BME280;41178;48.956;8.130;2023-02-16T03:05:30;101013.38;;;0.36;61.48
55317;BME280;41178;48.956;8.130;2023-02-16T03:10:35;100984.31;;;-0.58;63.42
55317;BME280;41178;48.956;8.130;2023-02-16T03:15:57;100993.59;;;-0.03;61.05
55317;BME280;41178;48.956;8.130;2023-02-16T03:21:01;101030.00;;;0.37;61.06
55317;BME280;41178;48.956;8.130;2023-02-16T03:26:23;101004.28;;;-0.71;64.36
55317;BME280;41178;48.956;8.130;2023-02-16T03:31:45;101030.84;;;-0.93;65.73
55317;BME280;41178;48.956;8.130;2023-02-16T03:36:51;101001.81;;;-2.16;66.81
55317;BME280;41178;48.956;8.130;2023-02-16T03:41:56;100981.78;;;-1.45;64.85
55317;BME280;41178;48.956;8.130;2023-02-16T03:46:58;101008.91;;;-1.10;65.96
55317;BME280;41178;48.956;8.130;2023-02-16T03:51:59;101081.00;;;1.12;59.98
55317;BME280;41178;48.956;8.130;2023-02-16T03:57:01;101007.59;;;0.13;61.15
55317;BME280;41178;48.956;8.130;2023-02-16T04:02:05;101034.97;;;0.57;61.06
55317;BME280;41178;48.956;8.130;2023-02-16T04:07:07;101035.72;;;0.59;60.71
55317;BME280;41178;48.956;8.130;2023-02-16T04:12:10;101026.03;;;0.13;60.48
55317;BME280;41178;48.956;8.130;2023-02-16T04:17:31;101021.44;;;-0.15;61.34
55317;BME280;41178;48.956;8.130;2023-02-16T04:22:33;101055.72;;;0.63;60.79
55317;BME280;41178;48.956;8.130;2023-02-16T04:27:36;101070.56;;;0.64;59.68
55317;BME280;41178;48.956;8.130;2023-02-16T04:32:38;101080.59;;;0.74;59.24
55317;BME280;41178;48.956;8.130;2023-02-16T04:37:40;101033.75;;;0.33;59.88
55317;BME280;41178;48.956;8.130;2023-02-16T04:42:43;101084.91;;;0.75;59.97
55317;BME280;41178;48.956;8.130;2023-02-16T04:47:45;101052.78;;;0.22;60.35
55317;BME280;41178;48.956;8.130;2023-02-16T04:52:47;101062.88;;;0.13;61.22
55317;BME280;41178;48.956;8.130;2023-02-16T04:57:48;101051.56;;;-0.20;62.33
55317;BME280;41178;48.956;8.130;2023-02-16T05:05:29;101032.16;;;-1.20;64.42
55317;BME280;41178;48.956;8.130;2023-02-16T05:10:32;101072.72;;;-1.25;65.30
55317;BME280;41178;48.956;8.130;2023-02-16T05:15:33;101048.34;;;-1.64;65.51
55317;BME280;41178;48.956;8.130;2023-02-16T05:20:35;101048.38;;;-1.11;65.09
55317;BME280;41178;48.956;8.130;2023-02-16T05:26:09;101005.91;;;-1.02;63.24
55317;BME280;41178;48.956;8.130;2023-02-16T05:31:11;101034.50;;;-0.29;62.47
55317;BME280;41178;48.956;8.130;2023-02-16T05:36:13;100987.53;;;-1.91;64.33
55317;BME280;41178;48.956;8.130;2023-02-16T05:41:15;101012.19;;;-1.76;65.08
55317;BME280;41178;48.956;8.130;2023-02-16T05:46:25;101044.31;;;-0.66;62.96
55317;BME280;41178;48.956;8.130;2023-02-16T05:51:27;101039.25;;;-0.87;63.30
55317;BME280;41178;48.956;8.130;2023-02-16T05:56:29;101024.00;;;-1.31;64.12
55317;BME280;41178;48.956;8.130;2023-02-16T06:01:30;101018.03;;;-2.45;66.72
55317;BME280;41178;48.956;8.130;2023-02-16T06:06:32;101037.91;;;-1.65;65.39
55317;BME280;41178;48.956;8.130;2023-02-16T06:11:34;101035.16;;;-1.45;64.51
55317;BME280;41178;48.956;8.130;2023-02-16T06:16:39;101046.00;;;-1.70;65.57
55317;BME280;41178;48.956;8.130;2023-02-16T06:21:41;101057.59;;;-1.57;66.76
55317;BME280;41178;48.956;8.130;2023-02-16T06:26:43;101028.19;;;-2.00;65.66
55317;BME280;41178;48.956;8.130;2023-02-16T06:31:45;101053.66;;;-0.94;63.17
55317;BME280;41178;48.956;8.130;2023-02-16T06:36:46;101070.94;;;-0.55;62.99
55317;BME280;41178;48.956;8.130;2023-02-16T06:41:48;101055.41;;;-0.94;63.25
55317;BME280;41178;48.956;8.130;2023-02-16T06:46:50;101051.31;;;-0.83;63.25
55317;BME280;41178;48.956;8.130;2023-02-16T06:51:52;101037.28;;;-0.99;62.96
55317;BME280;41178;48.956;8.130;2023-02-16T06:56:53;101043.84;;;-1.25;63.46
55317;BME280;41178;48.956;8.130;2023-02-16T07:01:55;101074.88;;;-0.46;60.89
55317;BME280;41178;48.956;8.130;2023-02-16T07:06:57;101039.50;;;-1.09;62.21
55317;BME280;41178;48.956;8.130;2023-02-16T07:11:58;101095.78;;;-0.27;61.69
55317;BME280;41178;48.956;8.130;2023-02-16T07:17:00;101061.59;;;-1.13;63.05
55317;BME280;41178;48.956;8.130;2023-02-16T07:22:04;101061.97;;;-0.86;62.05
55317;BME280;41178;48.956;8.130;2023-02-16T07:27:06;101072.41;;;-0.67;61.99
55317;BME280;41178;48.956;8.130;2023-02-16T07:32:09;101041.19;;;-1.08;62.86
55317;BME280;41178;48.956;8.130;2023-02-16T07:37:11;101054.81;;;-1.17;63.31
55317;BME280;41178;48.956;8.130;2023-02-16T07:42:12;101074.66;;;-1.11;63.32
55317;BME280;41178;48.956;8.130;2023-02-16T07:47:14;101079.00;;;-0.75;62.48
55317;BME280;41178;48.956;8.130;2023-02-16T07:52:16;101060.56;;;-1.28;64.45
55317;BME280;41178;48.956;8.130;2023-02-16T07:57:17;101094.34;;;-1.20;65.03
55317;BME280;41178;48.956;8.130;2023-02-16T08:02:20;101154.06;;;0.48;60.71
55317;BME280;41178;48.956;8.130;2023-02-16T08:07:22;101113.75;;;-0.02;62.30
55317;BME280;41178;48.956;8.130;2023-02-16T08:12:24;101165.19;;;0.53;60.30
55317;BME280;41178;48.956;8.130;2023-02-16T08:17:26;101177.16;;;0.59;60.36
55317;BME280;41178;48.956;8.130;2023-02-16T08:22:27;101183.94;;;0.63;60.59
55317;BME280;41178;48.956;8.130;2023-02-16T08:27:29;101220.56;;;1.15;59.45
55317;BME280;41178;48.956;8.130;2023-02-16T08:32:31;101237.53;;;1.41;59.39
55317;BME280;41178;48.956;8.130;2023-02-16T08:37:33;101236.13;;;1.36;58.43
55317;BME280;41178;48.956;8.130;2023-02-16T08:42:36;101149.44;;;0.36;61.64
55317;BME280;41178;48.956;8.130;2023-02-16T08:47:38;101249.31;;;1.66;59.96
55317;BME280;41178;48.956;8.130;2023-02-16T08:52:39;101261.38;;;1.70;59.58
55317;BME280;41178;48.956;8.130;2023-02-16T08:57:41;101224.84;;;1.48;61.23
55317;BME280;41178;48.956;8.130;2023-02-16T09:02:43;101228.53;;;1.46;61.90
55317;BME280;41178;48.956;8.130;2023-02-16T09:07:45;101262.31;;;2.00;60.09
55317;BME280;41178;48.956;8.130;2023-02-16T09:12:47;101275.22;;;2.33;59.77
55317;BME280;41178;48.956;8.130;2023-02-16T09:17:50;101299.97;;;2.61;59.70
55317;BME280;41178;48.956;8.130;2023-02-16T09:22:52;101286.34;;;2.38;60.32
55317;BME280;41178;48.956;8.130;2023-02-16T09:27:54;101270.22;;;2.71;59.94
55317;BME280;41178;48.956;8.130;2023-02-16T09:32:57;101309.88;;;3.82;58.44
55317;BME280;41178;48.956;8.130;2023-02-16T09:37:59;101284.56;;;3.23;59.21
55317;BME280;41178;48.956;8.130;2023-02-16T09:43:07;101288.50;;;3.58;58.48
55317;BME280;41178;48.956;8.130;2023-02-16T09:48:27;101313.00;;;4.40;57.95
55317;BME280;41178;48.956;8.130;2023-02-16T09:53:39;101305.59;;;4.45;57.63
55317;BME280;41178;48.956;8.130;2023-02-16T10:04:54;101267.19;;;4.25;57.96
55317;BME280;41178;48.956;8.130;2023-02-16T10:10:05;101267.69;;;4.30;57.28
55317;BME280;41178;48.956;8.130;2023-02-16T10:15:17;101300.31;;;5.92;56.36
55317;BME280;41178;48.956;8.130;2023-02-16T10:20:30;101221.72;;;5.29;56.31
55317;BME280;41178;48.956;8.130;2023-02-16T10:41:32;101180.97;;;5.30;54.77
55317;BME280;41178;48.956;8.130;2023-02-16T10:46:47;101230.66;;;6.22;53.93
55317;BME280;41178;48.956;8.130;2023-02-16T10:51:53;101227.56;;;6.94;52.90
55317;BME280;41178;48.956;8.130;2023-02-16T10:57:03;101167.22;;;6.06;53.83
55317;BME280;41178;48.956;8.130;2023-02-16T11:06:29;101119.19;;;4.69;56.74
55317;BME280;41178;48.956;8.130;2023-02-16T11:11:36;101127.63;;;5.45;56.08
55317;BME280;41178;48.956;8.130;2023-02-16T11:16:39;101127.88;;;5.42;56.01
55317;BME280;41178;48.956;8.130;2023-02-16T11:21:53;101104.38;;;5.02;55.80
55317;BME280;41178;48.956;8.130;2023-02-16T11:27:25;101143.03;;;5.75;55.00
55317;BME280;41178;48.956;8.130;2023-02-16T11:32:27;101171.44;;;6.97;53.89
55317;BME280;41178;48.956;8.130;2023-02-16T11:37:34;101112.59;;;6.24;54.37
55317;BME280;41178;48.956;8.130;2023-02-16T11:42:43;101145.69;;;6.87;53.04
55317;BME280;41178;48.956;8.130;2023-02-16T11:47:52;101113.34;;;6.70;52.91
55317;BME280;41178;48.956;8.130;2023-02-16T11:52:57;101138.41;;;7.42;52.10
55317;BME280;41178;48.956;8.130;2023-02-16T11:58:17;101102.31;;;7.49;52.30
55317;BME280;41178;48.956;8.130;2023-02-16T12:09:17;101086.06;;;7.83;51.28
55317;BME280;41178;48.956;8.130;2023-02-16T12:19:51;101047.88;;;7.73;50.72
55317;BME280;41178;48.956;8.130;2023-02-16T12:41:43;101058.13;;;8.38;50.56
55317;BME280;41178;48.956;8.130;2023-02-16T12:47:10;101045.06;;;8.83;50.54
55317;BME280;41178;48.956;8.130;2023-02-16T12:57:53;101025.63;;;9.58;51.38
55317;BME280;41178;48.956;8.130;2023-02-16T13:08:35;100941.75;;;8.46;48.97
55317;BME280;41178;48.956;8.130;2023-02-16T13:13:42;100929.84;;;8.31;49.70
55317;BME280;41178;48.956;8.130;2023-02-16T13:18:48;100928.25;;;8.58;49.39
55317;BME280;41178;48.956;8.130;2023-02-16T13:29:27;100948.44;;;8.99;50.03
55317;BME280;41178;48.956;8.130;2023-02-16T13:45:23;100898.56;;;9.46;47.97
55317;BME280;41178;48.956;8.130;2023-02-16T13:50:30;100910.47;;;9.79;46.66
55317;BME280;41178;48.956;8.130;2023-02-16T13:55:35;100853.53;;;9.05;46.92
55317;BME280;41178;48.956;8.130;2023-02-16T14:00:45;100846.97;;;8.99;47.12
55317;BME280;41178;48.956;8.130;2023-02-16T14:05:53;100794.75;;;8.50;46.79
55317;BME280;41178;48.956;8.130;2023-02-16T14:11:02;100812.59;;;8.87;46.42
55317;BME280;41178;48.956;8.130;2023-02-16T14:16:10;100811.31;;;8.43;46.56
55317;BME280;41178;48.956;8.130;2023-02-16T14:21:33;100769.56;;;8.62;47.16
55317;BME280;41178;48.956;8.130;2023-02-16T14:27:04;100786.84;;;8.85;46.62
55317;BME280;41178;48.956;8.130;2023-02-16T14:32:31;100826.00;;;9.50;46.78
55317;BME280;41178;48.956;8.130;2023-02-16T14:38:06;100805.13;;;9.36;46.77
55317;BME280;41178;48.956;8.130;2023-02-16T14:59:05;100781.19;;;9.44;47.21
55317;BME280;41178;48.956;8.130;2023-02-16T15:04:25;100778.13;;;9.57;47.41
55317;BME280;41178;48.956;8.130;2023-02-16T15:09:30;100777.72;;;9.70;47.77
55317;BME280;41178;48.956;8.130;2023-02-16T15:14:39;100765.16;;;9.62;48.06
55317;BME280;41178;48.956;8.130;2023-02-16T15:19:43;100759.88;;;9.52;47.84
55317;BME280;41178;48.956;8.130;2023-02-16T15:24:58;100750.16;;;9.87;47.69
55317;BME280;41178;48.956;8.130;2023-02-16T15:40:34;100736.72;;;10.05;47.31
55317;BME280;41178;48.956;8.130;2023-02-16T15:45:37;100749.28;;;10.74;45.91
55317;BME280;41178;48.956;8.130;2023-02-16T15:50:39;100697.31;;;10.07;47.35
55317;BME280;41178;48.956;8.130;2023-02-16T15:55:45;100720.47;;;10.67;46.58
55317;BME280;41178;48.956;8.130;2023-02-16T16:00:47;100667.28;;;9.87;47.48
55317;BME280;41178;48.956;8.130;2023-02-16T16:05:57;100693.09;;;10.31;47.19
55317;BME280;41178;48.956;8.130;2023-02-16T16:10:59;100631.38;;;9.64;48.60
55317;BME280;41178;48.956;8.130;2023-02-16T16:16:01;100635.50;;;9.58;48.80
55317;BME280;41178;48.956;8.130;2023-02-16T16:21:24;100621.63;;;9.81;49.20
55317;BME280;41178;48.956;8.130;2023-02-16T16:26:29;100583.88;;;8.69;50.05
55317;BME280;41178;48.956;8.130;2023-02-16T16:31:37;100576.56;;;8.71;49.96
55317;BME280;41178;48.956;8.130;2023-02-16T16:36:51;100579.44;;;8.78;49.83
55317;BME280;41178;48.956;8.130;2023-02-16T16:46:55;100572.69;;;9.28;50.21
55317;BME280;41178;48.956;8.130;2023-02-16T16:51:57;100596.03;;;9.78;50.06
55317;BME280;41178;48.956;8.130;2023-02-16T16:56:59;100550.00;;;8.52;50.92
55317;BME280;41178;48.956;8.130;2023-02-16T17:02:00;100585.25;;;9.35;50.19
55317;BME280;41178;48.956;8.130;2023-02-16T17:07:02;100574.16;;;9.22;50.68
55317;BME280;41178;48.956;8.130;2023-02-16T17:12:04;100550.69;;;8.72;51.60
55317;BME280;41178;48.956;8.130;2023-02-16T17:17:06;100564.34;;;9.31;51.19
55317;BME280;41178;48.956;8.130;2023-02-16T17:22:13;100537.94;;;8.83;51.81
55317;BME280;41178;48.956;8.130;2023-02-16T17:27:15;100564.28;;;9.22;51.51
55317;BME280;41178;48.956;8.130;2023-02-16T17:32:17;100566.81;;;9.50;51.08
55317;BME280;41178;48.956;8.130;2023-02-16T17:37:19;100535.59;;;8.80;51.98
55317;BME280;41178;48.956;8.130;2023-02-16T17:42:21;100564.72;;;9.62;51.00
55317;BME280;41178;48.956;8.130;2023-02-16T17:47:22;100550.22;;;9.38;50.26
55317;BME280;41178;48.956;8.130;2023-02-16T17:52:24;100535.28;;;9.28;50.22
55317;BME280;41178;48.956;8.130;2023-02-16T17:57:26;100567.28;;;9.80;48.39
55317;BME280;41178;48.956;8.130;2023-02-16T18:02:29;100585.81;;;10.00;48.32
55317;BME280;41178;48.956;8.130;2023-02-16T18:07:31;100569.19;;;9.53;48.98
55317;BME280;41178;48.956;8.130;2023-02-16T18:12:33;100588.31;;;10.01;48.66
55317;BME280;41178;48.956;8.130;2023-02-16T18:17:34;100541.53;;;8.20;49.56
55317;BME280;41178;48.956;8.130;2023-02-16T18:22:36;100576.25;;;8.74;48.82
55317;BME280;41178;48.956;8.130;2023-02-16T18:27:37;100575.28;;;9.19;48.72
55317;BME280;41178;48.956;8.130;2023-02-16T18:32:39;100596.47;;;9.65;48.04
55317;BME280;41178;48.956;8.130;2023-02-16T18:37:42;100541.31;;;8.14;49.01
55317;BME280;41178;48.956;8.130;2023-02-16T18:42:46;100584.56;;;7.70;49.43
55317;BME280;41178;48.956;8.130;2023-02-16T18:47:47;100587.00;;;7.91;49.18
55317;BME280;41178;48.956;8.130;2023-02-16T18:52:49;100590.09;;;8.42;48.29
55317;BME280;41178;48.956;8.130;2023-02-16T18:57:51;100549.25;;;8.59;47.94
55317;BME280;41178;48.956;8.130;2023-02-16T19:02:52;100560.78;;;8.78;47.71
55317;BME280;41178;48.956;8.130;2023-02-16T19:07:55;100544.03;;;8.04;48.27
55317;BME280;41178;48.956;8.130;2023-02-16T19:12:57;100575.19;;;8.21;48.39
55317;BME280;41178;48.956;8.130;2023-02-16T19:18:01;100596.28;;;8.78;47.84
55317;BME280;41178;48.956;8.130;2023-02-16T19:23:03;100570.59;;;8.41;48.15
55317;BME280;41178;48.956;8.130;2023-02-16T19:28:04;100579.22;;;8.07;48.32
55317;BME280;41178;48.956;8.130;2023-02-16T19:33:06;100612.31;;;8.78;47.79
55317;BME280;41178;48.956;8.130;2023-02-16T19:38:08;100579.94;;;8.00;48.91
55317;BME280;41178;48.956;8.130;2023-02-16T19:43:09;100610.44;;;7.78;49.91
55317;BME280;41178;48.956;8.130;2023-02-16T19:48:11;100622.66;;;8.18;48.98
55317;BME280;41178;48.956;8.130;2023-02-16T19:53:13;100590.56;;;8.09;48.53
55317;BME280;41178;48.956;8.130;2023-02-16T19:58:14;100612.00;;;8.18;49.05
55317;BME280;41178;48.956;8.130;2023-02-16T20:03:16;100618.69;;;8.50;48.64
55317;BME280;41178;48.956;8.130;2023-02-16T20:08:18;100607.16;;;7.56;49.78
55317;BME280;41178;48.956;8.130;2023-02-16T20:13:20;100614.63;;;8.91;48.62
55317;BME280;41178;48.956;8.130;2023-02-16T20:18:21;100584.50;;;8.81;48.36
55317;BME280;41178;48.956;8.130;2023-02-16T20:23:23;100567.06;;;8.59;48.83
55317;BME280;41178;48.956;8.130;2023-02-16T20:28:25;100589.59;;;8.92;48.32
55317;BME280;41178;48.956;8.130;2023-02-16T20:33:27;100592.56;;;9.07;48.03
55317;BME280;41178;48.956;8.130;2023-02-16T20:38:29;100608.44;;;8.91;48.81
55317;BME280;41178;48.956;8.130;2023-02-16T20:43:31;100583.03;;;8.69;48.69
55317;BME280;41178;48.956;8.130;2023-02-16T20:48:33;100567.19;;;8.21;48.61
55317;BME280;41178;48.956;8.130;2023-02-16T20:53:35;100583.06;;;9.31;48.17
55317;BME280;41178;48.956;8.130;2023-02-16T20:58:37;100576.56;;;9.33;47.44
55317;BME280;41178;48.956;8.130;2023-02-16T21:03:39;100569.03;;;8.21;49.41
55317;BME280;41178;48.956;8.130;2023-02-16T21:08:41;100576.31;;;9.00;48.14
55317;BME280;41178;48.956;8.130;2023-02-16T21:13:43;100549.66;;;9.27;47.63
55317;BME280;41178;48.956;8.130;2023-02-16T21:18:45;100515.47;;;8.14;48.49
55317;BME280;41178;48.956;8.130;2023-02-16T21:23:49;100538.72;;;8.40;48.37
55317;BME280;41178;48.956;8.130;2023-02-16T21:28:52;100521.78;;;8.13;48.86
55317;BME280;41178;48.956;8.130;2023-02-16T21:33:54;100543.03;;;8.87;48.22
55317;BME280;41178;48.956;8.130;2023-02-16T21:38:56;100545.34;;;9.08;47.35
55317;BME280;41178;48.956;8.130;2023-02-16T21:49:01;100538.13;;;9.00;47.98
55317;BME280;41178;48.956;8.130;2023-02-16T21:54:07;100535.03;;;9.13;47.93
55317;BME280;41178;48.956;8.130;2023-02-16T21:59:14;100537.75;;;8.95;47.99
55317;BME280;41178;48.956;8.130;2023-02-16T22:04:18;100553.94;;;9.19;47.38
55317;BME280;41178;48.956;8.130;2023-02-16T22:09:21;100522.22;;;8.54;48.25
55317;BME280;41178;48.956;8.130;2023-02-16T22:14:23;100519.75;;;8.43;48.15
55317;BME280;41178;48.956;8.130;2023-02-16T22:19:25;100518.63;;;8.45;48.79
55317;BME280;41178;48.956;8.130;2023-02-16T22:24:26;100518.69;;;8.54;48.57
55317;BME280;41178;48.956;8.130;2023-02-16T22:29:28;100549.91;;;9.15;47.67
55317;BME280;41178;48.956;8.130;2023-02-16T22:34:30;100552.38;;;9.35;48.01
55317;BME280;41178;48.956;8.130;2023-02-16T22:39:31;100523.19;;;8.53;48.30
55317;BME280;41178;48.956;8.130;2023-02-16T22:44:33;100525.19;;;8.69;48.66
55317;BME280;41178;48.956;8.130;2023-02-16T22:49:35;100523.88;;;8.91;48.00
55317;BME280;41178;48.956;8.130;2023-02-16T22:54:37;100516.69;;;8.74;48.16
55317;BME280;41178;48.956;8.130;2023-02-16T22:59:38;100520.81;;;8.50;48.50
55317;BME280;41178;48.956;8.130;2023-02-16T23:04:40;100532.47;;;8.85;48.16
55317;BME280;41178;48.956;8.130;2023-02-16T23:09:43;100523.41;;;8.78;47.65
55317;BME280;41178;48.956;8.130;2023-02-16T23:14:45;100529.00;;;9.11;47.84
55317;BME280;41178;48.956;8.130;2023-02-16T23:19:48;100539.47;;;9.04;48.31
55317;BME280;41178;48.956;8.130;2023-02-16T23:24:50;100516.00;;;8.54;48.63
55317;BME280;41178;48.956;8.130;2023-02-16T23:30:11;100534.47;;;8.29;49.24
55317;BME280;41178;48.956;8.130;2023-02-16T23:35:13;100563.31;;;7.88;49.33
55317;BME280;41178;48.956;8.130;2023-02-16T23:40:15;100553.41;;;7.70;49.53
55317;BME280;41178;48.956;8.130;2023-02-16T23:45:17;100538.44;;;8.61;48.66
55317;BME280;41178;48.956;8.130;2023-02-16T23:50:18;100521.91;;;8.57;48.22
55317;BME280;41178;48.956;8.130;2023-02-16T23:55:20;100537.13;;;8.47;48.56
